메인 페이지
METAR-TAF:

METAR-TAF

공항 :

트리부반 국제공항

카트만두, 네팔

위도: 27-42N, 경도: 085-22E, 고도: 1337m

현재 날씨관측

예보는 15분 전, 22:50시(UTC)에 발표되었습니다.
4kt
온도 18°C
습도 94%
기압 1015 hPa
시정: 7000m
고도 2000ft 상공 구름 조금
고도 2500ft 상공 구름 조금, 적란운.
고도 3000ft 상공 구름 보통
고도 10000ft 상공 구름 많음
뇌우, 비

METAR: VNKT 282250Z 01004KT 7000 TSRA FEW020 FEW025CB SCT030 BKN100 18/17 Q1015 NOSIG CB TO N NE E AND SW

시각: 04:50 (23:05 UTC)

예보

예보는 6 시간 5분 전, 17:00시(UTC)에 발표되었습니다.
예보 대상 시간: 28일 18시부터 29일 18시까지 (UTC)
남동4kt
시정: 7000m
고도 1500ft 상공 구름 조금
고도 10000ft 상공 구름 보통
전환 중
29일 00시부터 29일 02시까지 (UTC)
여러 방향의 바람 2kt
시정: 6000m
고도 1500ft 상공 구름 조금
고도 3000ft 상공 구름 보통
고도 10000ft 상공 구름 많음
전환 중
29일 04시부터 29일 05시까지 (UTC)
남남서5kt
시정: 8000m
고도 2000ft 상공 구름 조금
고도 10000ft 상공 구름 보통
확률 40%
29일 07시부터 29일 12시까지 (UTC)
여러 방향의 바람 10kt
시정: 5000m
고도 2500ft 상공 구름 조금, 적란운.
고도 3000ft 상공 구름 보통
고도 10000ft 상공 구름 많음
뇌우, 약한비
전환 중
29일 14시부터 29일 15시까지 (UTC)
남남동4kt
시정: 7000m
고도 1500ft 상공 구름 조금
고도 10000ft 상공 구름 보통

TAF: VNKT 281700Z 2818/2918 14004KT 7000 FEW015 SCT100 BECMG 2900/2902 VRB02KT 6000 FEW015 SCT030 BKN100 BECMG 2904/2905 20005KT 8000 FEW020 SCT100 PROB40 2907/2912 VRB10KT 5000 -TSRA FEW025CB SCT030 BKN100 BECMG 2914/2915 15004KT 7000 FEW015 SCT100

4,000개 이상의 공항 관측 자료 및 예보 (METAR 및 TAF 보고).

지도상에서 검색 가능한 기상관측소가 노란 점과 빨간 점으로 표시되어 있습니다.

기상관측소 명을 보려면 표시 위로 마우스를 이동하세요.

날씨 관측과 예보를 보려면 클릭하세요.

지도 변경 : 확대하려면 엑스 표시가 있는 녹색 버튼, 축소하려면 빼기 표시가 있는 녹색 버튼, 다음 페이지의 지도를 보려면 녹색 화살표를 클릭하세요.


METAR-TAF: